sensor_id;sensor_type;location;lat;lon;timestamp;P1;durP1;ratioP1;P2;durP2;ratioP2
23952;SDS011;12163;49.316;6.092;2023-04-25T00:00:12;8.48;;;5.07;;
23952;SDS011;12163;49.316;6.092;2023-04-25T00:02:40;10.13;;;5.22;;
23952;SDS011;12163;49.316;6.092;2023-04-25T00:05:07;9.38;;;5.43;;
23952;SDS011;12163;49.316;6.092;2023-04-25T00:07:35;6.70;;;5.40;;
23952;SDS011;12163;49.316;6.092;2023-04-25T00:10:02;7.70;;;6.13;;
23952;SDS011;12163;49.316;6.092;2023-04-25T00:12:29;8.32;;;6.43;;
23952;SDS011;12163;49.316;6.092;2023-04-25T00:14:55;10.52;;;6.25;;
23952;SDS011;12163;49.316;6.092;2023-04-25T00:17:26;9.95;;;6.57;;
23952;SDS011;12163;49.316;6.092;2023-04-25T00:19:53;10.32;;;6.43;;
23952;SDS011;12163;49.316;6.092;2023-04-25T00:22:20;10.35;;;6.30;;
23952;SDS011;12163;49.316;6.092;2023-04-25T00:24:47;13.48;;;6.38;;
23952;SDS011;12163;49.316;6.092;2023-04-25T00:27:13;10.20;;;6.25;;
23952;SDS011;12163;49.316;6.092;2023-04-25T00:29:40;7.70;;;5.80;;
23952;SDS011;12163;49.316;6.092;2023-04-25T00:32:06;8.38;;;5.90;;
23952;SDS011;12163;49.316;6.092;2023-04-25T00:34:33;8.20;;;5.50;;
23952;SDS011;12163;49.316;6.092;2023-04-25T00:36:59;6.93;;;5.72;;
23952;SDS011;12163;49.316;6.092;2023-04-25T00:39:28;7.18;;;4.93;;
23952;SDS011;12163;49.316;6.092;2023-04-25T00:41:54;6.65;;;5.45;;
23952;SDS011;12163;49.316;6.092;2023-04-25T00:44:21;7.53;;;5.30;;
23952;SDS011;12163;49.316;6.092;2023-04-25T00:46:48;6.50;;;5.10;;
23952;SDS011;12163;49.316;6.092;2023-04-25T00:49:18;10.02;;;5.03;;
23952;SDS011;12163;49.316;6.092;2023-04-25T00:51:44;7.32;;;5.18;;
23952;SDS011;12163;49.316;6.092;2023-04-25T00:54:14;10.52;;;6.00;;
23952;SDS011;12163;49.316;6.092;2023-04-25T00:56:41;8.45;;;5.38;;
23952;SDS011;12163;49.316;6.092;2023-04-25T00:59:09;7.45;;;5.20;;
23952;SDS011;12163;49.316;6.092;2023-04-25T01:01:36;6.20;;;5.13;;
23952;SDS011;12163;49.316;6.092;2023-04-25T01:04:04;7.90;;;4.93;;
23952;SDS011;12163;49.316;6.092;2023-04-25T01:06:31;9.25;;;5.00;;
23952;SDS011;12163;49.316;6.092;2023-04-25T01:08:58;6.80;;;4.85;;
23952;SDS011;12163;49.316;6.092;2023-04-25T01:11:25;5.85;;;5.00;;
23952;SDS011;12163;49.316;6.092;2023-04-25T01:13:52;14.13;;;5.50;;
23952;SDS011;12163;49.316;6.092;2023-04-25T01:16:18;6.05;;;5.22;;
23952;SDS011;12163;49.316;6.092;2023-04-25T01:18:45;7.60;;;4.63;;
23952;SDS011;12163;49.316;6.092;2023-04-25T01:21:12;8.73;;;4.65;;
23952;SDS011;12163;49.316;6.092;2023-04-25T01:23:39;8.90;;;5.35;;
23952;SDS011;12163;49.316;6.092;2023-04-25T01:26:08;7.45;;;5.30;;
23952;SDS011;12163;49.316;6.092;2023-04-25T01:28:36;6.60;;;5.03;;
23952;SDS011;12163;49.316;6.092;2023-04-25T01:31:03;5.38;;;4.78;;
23952;SDS011;12163;49.316;6.092;2023-04-25T01:33:31;7.47;;;5.40;;
23952;SDS011;12163;49.316;6.092;2023-04-25T01:35:58;11.00;;;6.10;;
23952;SDS011;12163;49.316;6.092;2023-04-25T01:38:25;7.13;;;5.63;;
23952;SDS011;12163;49.316;6.092;2023-04-25T01:40:52;8.60;;;5.60;;
23952;SDS011;12163;49.316;6.092;2023-04-25T01:43:20;8.07;;;5.65;;
23952;SDS011;12163;49.316;6.092;2023-04-25T01:45:46;7.28;;;5.07;;
23952;SDS011;12163;49.316;6.092;2023-04-25T01:48:14;9.18;;;5.65;;
23952;SDS011;12163;49.316;6.092;2023-04-25T01:50:41;7.63;;;5.75;;
23952;SDS011;12163;49.316;6.092;2023-04-25T01:53:09;9.52;;;5.80;;
23952;SDS011;12163;49.316;6.092;2023-04-25T01:55:37;6.70;;;5.15;;
23952;SDS011;12163;49.316;6.092;2023-04-25T01:58:03;8.40;;;5.95;;
23952;SDS011;12163;49.316;6.092;2023-04-25T02:00:35;7.60;;;5.85;;
23952;SDS011;12163;49.316;6.092;2023-04-25T02:03:05;10.00;;;5.25;;
23952;SDS011;12163;49.316;6.092;2023-04-25T02:05:36;9.73;;;5.72;;
23952;SDS011;12163;49.316;6.092;2023-04-25T02:08:07;8.57;;;5.35;;
23952;SDS011;12163;49.316;6.092;2023-04-25T02:10:35;6.88;;;5.43;;
23952;SDS011;12163;49.316;6.092;2023-04-25T02:13:02;6.40;;;5.60;;
23952;SDS011;12163;49.316;6.092;2023-04-25T02:15:30;8.52;;;6.03;;
23952;SDS011;12163;49.316;6.092;2023-04-25T02:17:57;9.10;;;6.00;;
23952;SDS011;12163;49.316;6.092;2023-04-25T02:20:24;10.80;;;6.65;;
23952;SDS011;12163;49.316;6.092;2023-04-25T02:22:51;9.05;;;6.25;;
23952;SDS011;12163;49.316;6.092;2023-04-25T02:25:18;11.73;;;6.78;;
23952;SDS011;12163;49.316;6.092;2023-04-25T02:27:46;8.00;;;6.65;;
23952;SDS011;12163;49.316;6.092;2023-04-25T02:30:14;15.10;;;7.63;;
23952;SDS011;12163;49.316;6.092;2023-04-25T02:32:41;14.32;;;7.22;;
23952;SDS011;12163;49.316;6.092;2023-04-25T02:35:08;11.65;;;7.15;;
23952;SDS011;12163;49.316;6.092;2023-04-25T02:37:35;9.98;;;7.18;;
23952;SDS011;12163;49.316;6.092;2023-04-25T02:40:03;13.13;;;7.68;;
23952;SDS011;12163;49.316;6.092;2023-04-25T02:42:30;11.52;;;7.53;;
23952;SDS011;12163;49.316;6.092;2023-04-25T02:44:57;11.80;;;7.18;;
23952;SDS011;12163;49.316;6.092;2023-04-25T02:47:24;9.30;;;6.68;;
23952;SDS011;12163;49.316;6.092;2023-04-25T02:49:50;8.40;;;6.63;;
23952;SDS011;12163;49.316;6.092;2023-04-25T02:52:17;7.93;;;6.80;;
23952;SDS011;12163;49.316;6.092;2023-04-25T02:54:43;10.52;;;6.80;;
23952;SDS011;12163;49.316;6.092;2023-04-25T02:57:10;10.45;;;7.20;;
23952;SDS011;12163;49.316;6.092;2023-04-25T02:59:37;10.05;;;6.55;;
23952;SDS011;12163;49.316;6.092;2023-04-25T03:02:03;11.18;;;7.03;;
23952;SDS011;12163;49.316;6.092;2023-04-25T03:04:30;10.07;;;6.68;;
23952;SDS011;12163;49.316;6.092;2023-04-25T03:06:56;8.15;;;6.57;;
23952;SDS011;12163;49.316;6.092;2023-04-25T03:09:23;8.57;;;6.65;;
23952;SDS011;12163;49.316;6.092;2023-04-25T03:11:50;8.60;;;6.82;;
23952;SDS011;12163;49.316;6.092;2023-04-25T03:14:16;8.80;;;6.40;;
23952;SDS011;12163;49.316;6.092;2023-04-25T03:16:43;10.50;;;6.80;;
23952;SDS011;12163;49.316;6.092;2023-04-25T03:19:09;10.15;;;6.75;;
23952;SDS011;12163;49.316;6.092;2023-04-25T03:21:36;9.38;;;6.38;;
23952;SDS011;12163;49.316;6.092;2023-04-25T03:24:03;11.73;;;6.82;;
23952;SDS011;12163;49.316;6.092;2023-04-25T03:26:32;8.27;;;6.68;;
23952;SDS011;12163;49.316;6.092;2023-04-25T03:28:58;10.30;;;6.93;;
23952;SDS011;12163;49.316;6.092;2023-04-25T03:31:25;12.30;;;7.35;;
23952;SDS011;12163;49.316;6.092;2023-04-25T03:33:52;11.13;;;7.00;;
23952;SDS011;12163;49.316;6.092;2023-04-25T03:36:18;12.18;;;8.07;;
23952;SDS011;12163;49.316;6.092;2023-04-25T03:38:45;12.60;;;7.53;;
23952;SDS011;12163;49.316;6.092;2023-04-25T03:41:12;13.57;;;7.57;;
23952;SDS011;12163;49.316;6.092;2023-04-25T03:43:39;9.48;;;7.55;;
23952;SDS011;12163;49.316;6.092;2023-04-25T03:46:05;11.27;;;7.07;;
23952;SDS011;12163;49.316;6.092;2023-04-25T03:48:32;13.35;;;7.53;;
23952;SDS011;12163;49.316;6.092;2023-04-25T03:50:58;11.43;;;7.53;;
23952;SDS011;12163;49.316;6.092;2023-04-25T03:53:25;12.50;;;7.43;;
23952;SDS011;12163;49.316;6.092;2023-04-25T03:55:52;14.73;;;7.43;;
23952;SDS011;12163;49.316;6.092;2023-04-25T03:58:18;12.93;;;8.07;;
23952;SDS011;12163;49.316;6.092;2023-04-25T04:00:45;11.40;;;7.47;;
23952;SDS011;12163;49.316;6.092;2023-04-25T04:03:12;9.90;;;7.32;;
23952;SDS011;12163;49.316;6.092;2023-04-25T04:05:39;11.20;;;6.72;;
23952;SDS011;12163;49.316;6.092;2023-04-25T04:08:06;9.60;;;6.55;;
23952;SDS011;12163;49.316;6.092;2023-04-25T04:10:33;10.68;;;6.57;;
23952;SDS011;12163;49.316;6.092;2023-04-25T04:13:00;11.95;;;6.55;;
23952;SDS011;12163;49.316;6.092;2023-04-25T04:15:26;9.73;;;7.32;;
23952;SDS011;12163;49.316;6.092;2023-04-25T04:17:53;10.45;;;7.07;;
23952;SDS011;12163;49.316;6.092;2023-04-25T04:20:21;8.05;;;6.63;;
23952;SDS011;12163;49.316;6.092;2023-04-25T04:22:47;9.30;;;6.88;;
23952;SDS011;12163;49.316;6.092;2023-04-25T04:25:14;9.68;;;6.20;;
23952;SDS011;12163;49.316;6.092;2023-04-25T04:27:41;14.40;;;6.72;;
23952;SDS011;12163;49.316;6.092;2023-04-25T04:30:07;8.80;;;6.72;;
23952;SDS011;12163;49.316;6.092;2023-04-25T04:32:34;8.88;;;6.55;;
23952;SDS011;12163;49.316;6.092;2023-04-25T04:35:04;8.25;;;6.90;;
23952;SDS011;12163;49.316;6.092;2023-04-25T04:37:32;7.28;;;6.45;;
23952;SDS011;12163;49.316;6.092;2023-04-25T04:39:59;9.88;;;5.88;;
23952;SDS011;12163;49.316;6.092;2023-04-25T04:42:32;8.57;;;6.43;;
23952;SDS011;12163;49.316;6.092;2023-04-25T04:44:58;12.50;;;6.93;;
23952;SDS011;12163;49.316;6.092;2023-04-25T04:47:27;9.93;;;7.13;;
23952;SDS011;12163;49.316;6.092;2023-04-25T04:49:57;9.02;;;6.75;;
23952;SDS011;12163;49.316;6.092;2023-04-25T04:52:24;9.45;;;7.22;;
23952;SDS011;12163;49.316;6.092;2023-04-25T04:54:50;8.40;;;6.82;;
23952;SDS011;12163;49.316;6.092;2023-04-25T04:57:17;9.07;;;6.90;;
23952;SDS011;12163;49.316;6.092;2023-04-25T04:59:43;9.10;;;6.22;;
23952;SDS011;12163;49.316;6.092;2023-04-25T05:02:10;7.13;;;5.95;;
23952;SDS011;12163;49.316;6.092;2023-04-25T05:04:37;5.78;;;5.18;;
23952;SDS011;12163;49.316;6.092;2023-04-25T05:07:04;6.75;;;5.72;;
23952;SDS011;12163;49.316;6.092;2023-04-25T05:09:30;5.90;;;5.20;;
23952;SDS011;12163;49.316;6.092;2023-04-25T05:11:57;5.55;;;4.53;;
23952;SDS011;12163;49.316;6.092;2023-04-25T05:14:23;6.57;;;4.75;;
23952;SDS011;12163;49.316;6.092;2023-04-25T05:16:50;5.78;;;5.13;;
23952;SDS011;12163;49.316;6.092;2023-04-25T05:19:17;5.85;;;4.93;;
23952;SDS011;12163;49.316;6.092;2023-04-25T05:21:43;5.88;;;3.80;;
23952;SDS011;12163;49.316;6.092;2023-04-25T05:24:10;7.38;;;4.20;;
23952;SDS011;12163;49.316;6.092;2023-04-25T05:26:37;6.95;;;4.05;;
23952;SDS011;12163;49.316;6.092;2023-04-25T05:29:03;6.03;;;3.80;;
23952;SDS011;12163;49.316;6.092;2023-04-25T05:31:31;4.78;;;3.85;;
23952;SDS011;12163;49.316;6.092;2023-04-25T05:33:58;5.72;;;4.22;;
23952;SDS011;12163;49.316;6.092;2023-04-25T05:39:09;5.93;;;4.35;;
23952;SDS011;12163;49.316;6.092;2023-04-25T05:41:36;5.72;;;3.80;;
23952;SDS011;12163;49.316;6.092;2023-04-25T05:44:03;6.28;;;4.45;;
23952;SDS011;12163;49.316;6.092;2023-04-25T05:46:29;7.20;;;4.20;;
23952;SDS011;12163;49.316;6.092;2023-04-25T05:48:56;6.35;;;4.85;;
23952;SDS011;12163;49.316;6.092;2023-04-25T05:51:23;4.97;;;4.47;;
23952;SDS011;12163;49.316;6.092;2023-04-25T05:53:49;6.82;;;4.75;;
23952;SDS011;12163;49.316;6.092;2023-04-25T05:56:17;5.80;;;4.68;;
23952;SDS011;12163;49.316;6.092;2023-04-25T05:58:43;6.40;;;4.47;;
23952;SDS011;12163;49.316;6.092;2023-04-25T06:01:10;6.22;;;5.15;;
23952;SDS011;12163;49.316;6.092;2023-04-25T06:03:37;7.57;;;5.65;;
23952;SDS011;12163;49.316;6.092;2023-04-25T06:06:04;7.15;;;4.90;;
23952;SDS011;12163;49.316;6.092;2023-04-25T06:08:32;7.00;;;5.10;;
23952;SDS011;12163;49.316;6.092;2023-04-25T06:10:58;8.10;;;5.25;;
23952;SDS011;12163;49.316;6.092;2023-04-25T06:13:25;7.60;;;5.22;;
23952;SDS011;12163;49.316;6.092;2023-04-25T06:15:51;7.22;;;5.40;;
23952;SDS011;12163;49.316;6.092;2023-04-25T06:18:18;6.78;;;5.47;;
23952;SDS011;12163;49.316;6.092;2023-04-25T06:20:45;8.75;;;5.38;;
23952;SDS011;12163;49.316;6.092;2023-04-25T06:23:12;10.05;;;5.50;;
23952;SDS011;12163;49.316;6.092;2023-04-25T06:25:38;7.43;;;5.30;;
23952;SDS011;12163;49.316;6.092;2023-04-25T06:28:05;5.78;;;5.15;;
23952;SDS011;12163;49.316;6.092;2023-04-25T06:30:32;6.57;;;4.88;;
23952;SDS011;12163;49.316;6.092;2023-04-25T06:32:58;8.95;;;5.60;;
23952;SDS011;12163;49.316;6.092;2023-04-25T06:35:25;7.03;;;4.93;;
23952;SDS011;12163;49.316;6.092;2023-04-25T06:37:52;6.93;;;5.45;;
23952;SDS011;12163;49.316;6.092;2023-04-25T06:40:18;7.40;;;5.47;;
23952;SDS011;12163;49.316;6.092;2023-04-25T06:42:45;7.75;;;5.18;;
23952;SDS011;12163;49.316;6.092;2023-04-25T06:45:12;5.82;;;4.70;;
23952;SDS011;12163;49.316;6.092;2023-04-25T06:47:38;6.75;;;5.05;;
23952;SDS011;12163;49.316;6.092;2023-04-25T06:50:05;6.15;;;5.35;;
23952;SDS011;12163;49.316;6.092;2023-04-25T06:52:32;7.25;;;4.68;;
23952;SDS011;12163;49.316;6.092;2023-04-25T06:54:59;5.03;;;4.38;;
23952;SDS011;12163;49.316;6.092;2023-04-25T06:57:25;8.57;;;4.57;;
23952;SDS011;12163;49.316;6.092;2023-04-25T06:59:52;5.40;;;4.38;;
23952;SDS011;12163;49.316;6.092;2023-04-25T07:02:18;4.93;;;4.18;;
23952;SDS011;12163;49.316;6.092;2023-04-25T07:04:47;4.80;;;4.25;;
23952;SDS011;12163;49.316;6.092;2023-04-25T07:07:15;6.85;;;4.20;;
23952;SDS011;12163;49.316;6.092;2023-04-25T07:09:43;6.28;;;4.22;;
23952;SDS011;12163;49.316;6.092;2023-04-25T07:12:09;5.53;;;3.70;;
23952;SDS011;12163;49.316;6.092;2023-04-25T07:14:36;4.00;;;3.60;;
23952;SDS011;12163;49.316;6.092;2023-04-25T07:17:03;5.35;;;3.75;;
23952;SDS011;12163;49.316;6.092;2023-04-25T07:19:29;4.70;;;3.63;;
23952;SDS011;12163;49.316;6.092;2023-04-25T07:21:56;5.95;;;4.05;;
23952;SDS011;12163;49.316;6.092;2023-04-25T07:24:22;5.15;;;3.60;;
23952;SDS011;12163;49.316;6.092;2023-04-25T07:26:49;3.72;;;3.40;;
23952;SDS011;12163;49.316;6.092;2023-04-25T07:29:16;5.22;;;3.72;;
23952;SDS011;12163;49.316;6.092;2023-04-25T07:31:43;5.57;;;3.95;;
23952;SDS011;12163;49.316;6.092;2023-04-25T07:34:09;5.95;;;4.28;;
23952;SDS011;12163;49.316;6.092;2023-04-25T07:36:36;4.22;;;3.55;;
23952;SDS011;12163;49.316;6.092;2023-04-25T07:39:03;5.95;;;4.00;;
23952;SDS011;12163;49.316;6.092;2023-04-25T07:41:29;5.15;;;3.63;;
23952;SDS011;12163;49.316;6.092;2023-04-25T07:43:56;5.25;;;3.88;;
23952;SDS011;12163;49.316;6.092;2023-04-25T07:46:23;4.97;;;4.00;;
23952;SDS011;12163;49.316;6.092;2023-04-25T07:48:49;4.07;;;3.63;;
23952;SDS011;12163;49.316;6.092;2023-04-25T07:51:16;4.75;;;3.67;;
23952;SDS011;12163;49.316;6.092;2023-04-25T07:53:46;5.13;;;3.58;;
23952;SDS011;12163;49.316;6.092;2023-04-25T07:56:15;4.72;;;3.55;;
23952;SDS011;12163;49.316;6.092;2023-04-25T07:58:42;6.35;;;3.35;;
23952;SDS011;12163;49.316;6.092;2023-04-25T08:01:08;6.75;;;3.80;;
23952;SDS011;12163;49.316;6.092;2023-04-25T08:03:35;6.75;;;3.65;;
23952;SDS011;12163;49.316;6.092;2023-04-25T08:06:02;4.10;;;3.47;;
23952;SDS011;12163;49.316;6.092;2023-04-25T08:08:33;8.25;;;3.97;;
23952;SDS011;12163;49.316;6.092;2023-04-25T08:11:00;3.75;;;3.20;;
23952;SDS011;12163;49.316;6.092;2023-04-25T08:13:26;4.50;;;3.58;;
23952;SDS011;12163;49.316;6.092;2023-04-25T08:15:53;5.35;;;3.65;;
23952;SDS011;12163;49.316;6.092;2023-04-25T08:18:20;8.45;;;3.80;;
23952;SDS011;12163;49.316;6.092;2023-04-25T08:20:46;4.75;;;3.45;;
23952;SDS011;12163;49.316;6.092;2023-04-25T08:23:13;4.85;;;3.30;;
23952;SDS011;12163;49.316;6.092;2023-04-25T08:25:40;4.82;;;3.30;;
23952;SDS011;12163;49.316;6.092;2023-04-25T08:28:07;5.72;;;3.20;;
23952;SDS011;12163;49.316;6.092;2023-04-25T08:30:33;4.85;;;3.35;;
23952;SDS011;12163;49.316;6.092;2023-04-25T08:33:00;4.70;;;3.10;;
23952;SDS011;12163;49.316;6.092;2023-04-25T08:35:26;6.32;;;3.55;;
23952;SDS011;12163;49.316;6.092;2023-04-25T08:37:53;5.30;;;3.00;;
23952;SDS011;12163;49.316;6.092;2023-04-25T08:40:20;3.17;;;2.88;;
23952;SDS011;12163;49.316;6.092;2023-04-25T08:42:53;4.93;;;2.70;;
23952;SDS011;12163;49.316;6.092;2023-04-25T08:45:20;4.55;;;2.58;;
23952;SDS011;12163;49.316;6.092;2023-04-25T08:47:47;2.72;;;2.13;;
23952;SDS011;12163;49.316;6.092;2023-04-25T08:50:15;3.03;;;1.90;;
23952;SDS011;12163;49.316;6.092;2023-04-25T08:52:44;1.50;;;1.40;;
23952;SDS011;12163;49.316;6.092;2023-04-25T08:55:12;1.45;;;1.20;;
23952;SDS011;12163;49.316;6.092;2023-04-25T08:57:43;4.43;;;1.30;;
23952;SDS011;12163;49.316;6.092;2023-04-25T09:00:11;1.50;;;0.90;;
23952;SDS011;12163;49.316;6.092;2023-04-25T09:02:39;2.17;;;1.02;;
23952;SDS011;12163;49.316;6.092;2023-04-25T09:05:06;1.92;;;1.10;;
23952;SDS011;12163;49.316;6.092;2023-04-25T09:07:36;1.73;;;1.08;;
23952;SDS011;12163;49.316;6.092;2023-04-25T09:10:02;1.77;;;1.20;;
23952;SDS011;12163;49.316;6.092;2023-04-25T09:12:29;10.38;;;6.25;;
23952;SDS011;12163;49.316;6.092;2023-04-25T09:15:06;11.90;;;6.25;;
23952;SDS011;12163;49.316;6.092;2023-04-25T09:17:37;11.13;;;6.40;;
23952;SDS011;12163;49.316;6.092;2023-04-25T09:20:08;12.38;;;7.10;;
23952;SDS011;12163;49.316;6.092;2023-04-25T09:22:36;15.98;;;6.60;;
23952;SDS011;12163;49.316;6.092;2023-04-25T09:25:07;14.55;;;7.63;;
23952;SDS011;12163;49.316;6.092;2023-04-25T09:30:02;14.10;;;6.65;;
23952;SDS011;12163;49.316;6.092;2023-04-25T09:32:29;13.73;;;7.03;;
23952;SDS011;12163;49.316;6.092;2023-04-25T09:34:56;18.38;;;7.38;;
23952;SDS011;12163;49.316;6.092;2023-04-25T09:37:24;10.63;;;6.47;;
23952;SDS011;12163;49.316;6.092;2023-04-25T09:42:23;12.40;;;7.38;;
23952;SDS011;12163;49.316;6.092;2023-04-25T09:44:52;14.75;;;7.93;;
23952;SDS011;12163;49.316;6.092;2023-04-25T09:47:20;14.27;;;7.28;;
23952;SDS011;12163;49.316;6.092;2023-04-25T09:49:50;15.55;;;7.82;;
23952;SDS011;12163;49.316;6.092;2023-04-25T09:52:18;18.45;;;7.53;;
23952;SDS011;12163;49.316;6.092;2023-04-25T09:57:18;19.33;;;8.43;;
23952;SDS011;12163;49.316;6.092;2023-04-25T09:59:51;17.90;;;7.82;;
23952;SDS011;12163;49.316;6.092;2023-04-25T10:02:20;20.15;;;8.05;;
23952;SDS011;12163;49.316;6.092;2023-04-25T10:04:49;15.95;;;7.60;;
23952;SDS011;12163;49.316;6.092;2023-04-25T10:07:19;18.77;;;7.85;;
23952;SDS011;12163;49.316;6.092;2023-04-25T10:09:48;16.42;;;6.88;;
23952;SDS011;12163;49.316;6.092;2023-04-25T10:12:18;20.17;;;7.43;;
23952;SDS011;12163;49.316;6.092;2023-04-25T10:14:44;14.70;;;7.32;;
23952;SDS011;12163;49.316;6.092;2023-04-25T10:17:12;16.23;;;7.25;;
23952;SDS011;12163;49.316;6.092;2023-04-25T10:19:40;13.55;;;6.38;;
23952;SDS011;12163;49.316;6.092;2023-04-25T10:22:07;18.40;;;7.10;;
23952;SDS011;12163;49.316;6.092;2023-04-25T10:24:40;14.85;;;6.78;;
23952;SDS011;12163;49.316;6.092;2023-04-25T10:27:08;13.75;;;6.63;;
23952;SDS011;12163;49.316;6.092;2023-04-25T10:29:35;18.40;;;6.75;;
23952;SDS011;12163;49.316;6.092;2023-04-25T10:32:02;13.70;;;6.70;;
23952;SDS011;12163;49.316;6.092;2023-04-25T10:34:41;17.65;;;6.90;;
23952;SDS011;12163;49.316;6.092;2023-04-25T10:37:09;19.25;;;7.28;;
23952;SDS011;12163;49.316;6.092;2023-04-25T10:39:40;17.70;;;7.05;;
23952;SDS011;12163;49.316;6.092;2023-04-25T10:42:08;18.92;;;6.97;;
23952;SDS011;12163;49.316;6.092;2023-04-25T10:44:35;18.35;;;6.90;;
23952;SDS011;12163;49.316;6.092;2023-04-25T10:47:03;20.38;;;8.20;;
23952;SDS011;12163;49.316;6.092;2023-04-25T10:49:35;19.85;;;7.78;;
23952;SDS011;12163;49.316;6.092;2023-04-25T10:52:13;16.23;;;6.72;;
23952;SDS011;12163;49.316;6.092;2023-04-25T10:54:56;15.40;;;6.60;;
23952;SDS011;12163;49.316;6.092;2023-04-25T10:57:36;23.65;;;7.82;;
23952;SDS011;12163;49.316;6.092;2023-04-25T11:00:08;20.52;;;8.25;;
23952;SDS011;12163;49.316;6.092;2023-04-25T11:02:40;21.90;;;7.95;;
23952;SDS011;12163;49.316;6.092;2023-04-25T11:05:09;18.23;;;7.57;;
23952;SDS011;12163;49.316;6.092;2023-04-25T11:10:33;18.95;;;7.93;;
23952;SDS011;12163;49.316;6.092;2023-04-25T11:13:02;17.58;;;7.20;;
23952;SDS011;12163;49.316;6.092;2023-04-25T11:15:28;13.27;;;7.57;;
23952;SDS011;12163;49.316;6.092;2023-04-25T11:17:55;18.92;;;7.25;;
23952;SDS011;12163;49.316;6.092;2023-04-25T11:20:22;17.52;;;7.35;;
23952;SDS011;12163;49.316;6.092;2023-04-25T11:22:52;17.20;;;6.88;;
23952;SDS011;12163;49.316;6.092;2023-04-25T11:25:19;20.52;;;7.32;;
23952;SDS011;12163;49.316;6.092;2023-04-25T11:30:17;14.03;;;6.70;;
23952;SDS011;12163;49.316;6.092;2023-04-25T11:32:45;15.77;;;7.00;;
23952;SDS011;12163;49.316;6.092;2023-04-25T11:35:12;15.63;;;6.90;;
23952;SDS011;12163;49.316;6.092;2023-04-25T11:37:39;20.08;;;7.43;;
23952;SDS011;12163;49.316;6.092;2023-04-25T11:40:07;19.92;;;8.07;;
23952;SDS011;12163;49.316;6.092;2023-04-25T11:42:39;19.67;;;8.05;;
23952;SDS011;12163;49.316;6.092;2023-04-25T11:45:10;15.85;;;7.40;;
23952;SDS011;12163;49.316;6.092;2023-04-25T11:47:38;20.27;;;7.30;;
23952;SDS011;12163;49.316;6.092;2023-04-25T11:50:05;14.10;;;6.55;;
23952;SDS011;12163;49.316;6.092;2023-04-25T11:55:08;16.88;;;6.80;;
23952;SDS011;12163;49.316;6.092;2023-04-25T11:57:40;16.10;;;6.53;;
23952;SDS011;12163;49.316;6.092;2023-04-25T12:00:15;10.93;;;5.50;;
23952;SDS011;12163;49.316;6.092;2023-04-25T12:02:51;12.25;;;5.93;;
23952;SDS011;12163;49.316;6.092;2023-04-25T12:05:19;10.93;;;5.35;;
23952;SDS011;12163;49.316;6.092;2023-04-25T12:07:52;14.40;;;5.32;;
23952;SDS011;12163;49.316;6.092;2023-04-25T12:10:19;8.50;;;4.72;;
23952;SDS011;12163;49.316;6.092;2023-04-25T12:12:47;13.13;;;4.50;;
23952;SDS011;12163;49.316;6.092;2023-04-25T12:15:15;7.50;;;3.60;;
23952;SDS011;12163;49.316;6.092;2023-04-25T12:17:46;7.00;;;3.63;;
23952;SDS011;12163;49.316;6.092;2023-04-25T12:20:15;7.68;;;3.42;;
23952;SDS011;12163;49.316;6.092;2023-04-25T12:22:44;4.70;;;2.88;;
23952;SDS011;12163;49.316;6.092;2023-04-25T12:30:51;6.35;;;3.28;;
23952;SDS011;12163;49.316;6.092;2023-04-25T12:33:18;5.65;;;3.50;;
23952;SDS011;12163;49.316;6.092;2023-04-25T12:35:45;9.93;;;2.92;;
23952;SDS011;12163;49.316;6.092;2023-04-25T12:38:11;7.13;;;3.03;;
23952;SDS011;12163;49.316;6.092;2023-04-25T12:40:57;5.15;;;2.70;;
23952;SDS011;12163;49.316;6.092;2023-04-25T12:43:24;6.10;;;2.97;;
23952;SDS011;12163;49.316;6.092;2023-04-25T12:45:51;6.93;;;2.70;;
23952;SDS011;12163;49.316;6.092;2023-04-25T12:48:19;6.68;;;2.95;;
23952;SDS011;12163;49.316;6.092;2023-04-25T12:50:46;6.30;;;2.88;;
23952;SDS011;12163;49.316;6.092;2023-04-25T12:53:15;6.38;;;3.13;;
23952;SDS011;12163;49.316;6.092;2023-04-25T12:55:43;10.48;;;2.95;;
23952;SDS011;12163;49.316;6.092;2023-04-25T12:58:12;8.00;;;2.65;;
23952;SDS011;12163;49.316;6.092;2023-04-25T13:00:39;5.63;;;2.78;;
23952;SDS011;12163;49.316;6.092;2023-04-25T13:03:06;8.65;;;2.72;;
23952;SDS011;12163;49.316;6.092;2023-04-25T13:05:33;7.07;;;2.85;;
23952;SDS011;12163;49.316;6.092;2023-04-25T13:08:00;8.75;;;2.70;;
23952;SDS011;12163;49.316;6.092;2023-04-25T13:10:26;7.47;;;2.47;;
23952;SDS011;12163;49.316;6.092;2023-04-25T13:12:53;7.57;;;3.17;;
23952;SDS011;12163;49.316;6.092;2023-04-25T13:15:19;5.53;;;2.70;;
23952;SDS011;12163;49.316;6.092;2023-04-25T13:17:46;11.23;;;2.85;;
23952;SDS011;12163;49.316;6.092;2023-04-25T13:20:13;11.18;;;3.30;;
23952;SDS011;12163;49.316;6.092;2023-04-25T13:22:41;7.75;;;3.45;;
23952;SDS011;12163;49.316;6.092;2023-04-25T13:25:08;9.25;;;3.45;;
23952;SDS011;12163;49.316;6.092;2023-04-25T13:27:35;9.32;;;2.97;;
23952;SDS011;12163;49.316;6.092;2023-04-25T13:30:05;8.85;;;2.85;;
23952;SDS011;12163;49.316;6.092;2023-04-25T13:32:36;5.97;;;2.55;;
23952;SDS011;12163;49.316;6.092;2023-04-25T13:35:04;10.07;;;2.60;;
23952;SDS011;12163;49.316;6.092;2023-04-25T13:37:35;6.57;;;2.70;;
23952;SDS011;12163;49.316;6.092;2023-04-25T13:40:03;6.03;;;2.60;;
23952;SDS011;12163;49.316;6.092;2023-04-25T13:42:32;8.88;;;2.95;;
23952;SDS011;12163;49.316;6.092;2023-04-25T13:44:59;6.07;;;3.00;;
23952;SDS011;12163;49.316;6.092;2023-04-25T13:47:25;6.38;;;2.75;;
23952;SDS011;12163;49.316;6.092;2023-04-25T13:49:53;9.68;;;2.78;;
23952;SDS011;12163;49.316;6.092;2023-04-25T13:52:20;4.82;;;2.42;;
23952;SDS011;12163;49.316;6.092;2023-04-25T13:54:47;8.00;;;3.30;;
23952;SDS011;12163;49.316;6.092;2023-04-25T13:57:13;6.55;;;2.85;;
23952;SDS011;12163;49.316;6.092;2023-04-25T13:59:40;7.70;;;2.78;;
23952;SDS011;12163;49.316;6.092;2023-04-25T14:02:07;11.10;;;2.88;;
23952;SDS011;12163;49.316;6.092;2023-04-25T14:04:33;8.90;;;2.70;;
23952;SDS011;12163;49.316;6.092;2023-04-25T14:07:00;10.27;;;3.03;;
23952;SDS011;12163;49.316;6.092;2023-04-25T14:09:28;7.70;;;2.88;;
23952;SDS011;12163;49.316;6.092;2023-04-25T14:11:55;5.68;;;2.75;;
23952;SDS011;12163;49.316;6.092;2023-04-25T14:14:22;6.88;;;2.67;;
23952;SDS011;12163;49.316;6.092;2023-04-25T14:16:50;10.40;;;3.03;;
23952;SDS011;12163;49.316;6.092;2023-04-25T14:19:20;5.32;;;2.60;;
23952;SDS011;12163;49.316;6.092;2023-04-25T14:21:47;5.53;;;2.70;;
23952;SDS011;12163;49.316;6.092;2023-04-25T14:24:14;4.45;;;2.40;;
23952;SDS011;12163;49.316;6.092;2023-04-25T14:26:41;5.00;;;3.00;;
23952;SDS011;12163;49.316;6.092;2023-04-25T14:29:08;5.25;;;2.83;;
23952;SDS011;12163;49.316;6.092;2023-04-25T14:31:38;6.55;;;2.67;;
23952;SDS011;12163;49.316;6.092;2023-04-25T14:34:06;5.30;;;2.83;;
23952;SDS011;12163;49.316;6.092;2023-04-25T14:36:33;4.95;;;2.58;;
23952;SDS011;12163;49.316;6.092;2023-04-25T14:39:00;8.55;;;3.15;;
23952;SDS011;12163;49.316;6.092;2023-04-25T14:41:27;6.55;;;2.88;;
23952;SDS011;12163;49.316;6.092;2023-04-25T14:43:54;7.35;;;2.70;;
23952;SDS011;12163;49.316;6.092;2023-04-25T14:49:06;5.80;;;3.05;;
23952;SDS011;12163;49.316;6.092;2023-04-25T14:51:33;6.32;;;2.25;;
23952;SDS011;12163;49.316;6.092;2023-04-25T14:54:00;7.20;;;2.80;;
23952;SDS011;12163;49.316;6.092;2023-04-25T14:56:26;7.28;;;2.50;;
23952;SDS011;12163;49.316;6.092;2023-04-25T14:58:53;5.43;;;2.45;;
23952;SDS011;12163;49.316;6.092;2023-04-25T15:01:19;6.07;;;2.70;;
23952;SDS011;12163;49.316;6.092;2023-04-25T15:03:47;6.53;;;2.35;;
23952;SDS011;12163;49.316;6.092;2023-04-25T15:06:14;7.70;;;2.63;;
23952;SDS011;12163;49.316;6.092;2023-04-25T15:08:41;4.30;;;2.05;;
23952;SDS011;12163;49.316;6.092;2023-04-25T15:11:08;7.78;;;3.10;;